KBFM Airport Information

Runway Information
Runway 14 Length 9618 ft width 150 ft
Elevation 26 ft Threshold 0 ft Heading 139
Runway 32 Length 9618 ft Width 150 ft
Elevation 19 ft Threshold 0 ft Heading 319
Runway 18 Length 7800 ft width 150 ft
Elevation 26 ft Threshold 0 ft Heading 180
Runway 36 Length 7800 ft Width 150 ft
Elevation 25 ft Threshold 0 ft Heading 360
Airport Frequencies
Type A/D Name APP/DEP Frequency 118.5 MHZ
Type ATIS Name ATIS Frequency 135.575 MHZ
Type CTAF Name CTAF Frequency 118.8 MHZ
Type GND Name GND Frequency 121.7 MHZ
Type RDO Name ANNISTON R Frequency 112.8 MHZ
Type TWR Name DOWNTOWN T Frequency 118.8 MHZ
Type UNIC Name UNICOM Frequency 122.95 MHZ
Airport Navaids
Airport Weather Information & NOTAM
ADDS - METARS form results

(1604 UTC 18 September 2020)
Data provider http://aviationweather.gov/metar/data/
 
Forecast for: KBFM (MOBILE/BROOKLEY , AL, US)
Text: KBFM 181130Z 1812/1912 35008KT P6SM FEW025 SCT150
Forecast period: 1200 UTC 18 September 2020 to 1200 UTC 19 September 2020
Forecast type: FROM: standard forecast or significant change
Winds: from the N (350 degrees) at 9 MPH (8 knots; 4.1 m/s)
Visibility: 6 or more miles (10+ km)
Ceiling: at least 12,000 feet AGL
Clouds: few clouds at 2500 feet AGL
scattered clouds at 15000 feet AGL
Weather: no significant weather forecast for this period